This is the latest recevied weather packets stored in our database for station/object HS5NMF. If no packets are shown the sender has not sent any weather packets the latest 10 day(s).
| Time | Temp. | Humidity | Pressure | Rain* | Wind** | Luminosity | Snow |
|---|---|---|---|---|---|---|---|
| 1778148015 | 30° C | 82% | 975 hPa | - | - | 0 W/m² | - |
| 1778147691 | 30° C | 81% | 975 hPa | - | - | 0 W/m² | - |
| 1778147367 | 29.44° C | 80% | 975 hPa | - | - | 0 W/m² | - |
| 1778147042 | 30° C | 78% | 975 hPa | - | - | 0 W/m² | - |
| 1778146715 | 30° C | 78% | 975 hPa | - | - | 0 W/m² | - |
| 1778146387 | 30.56° C | 76% | 974 hPa | - | - | 0 W/m² | - |
| 1778146063 | 30.56° C | 75% | 974 hPa | - | - | 0 W/m² | - |
| 1778145739 | 30.56° C | 72% | 974 hPa | - | - | 0 W/m² | - |
| 1778145416 | 30.56° C | 72% | 974 hPa | - | - | 0 W/m² | - |
| 1778145094 | 30° C | 73% | 974 hPa | - | - | 0 W/m² | - |
| 1778144771 | 30° C | 73% | 974 hPa | - | - | 0 W/m² | - |
| 1778144448 | 30.56° C | 70% | 974 hPa | - | - | 0 W/m² | - |
| 1778144124 | 31.11° C | 69% | 974 hPa | - | - | 0 W/m² | - |
| 1778143800 | 31.11° C | 68% | 974 hPa | - | - | 0 W/m² | - |
| 1778143477 | 30.56° C | 69% | 975 hPa | - | - | 0 W/m² | - |
| 1778143153 | 30.56° C | 69% | 975 hPa | - | - | 0 W/m² | - |
| 1778142831 | 31.11° C | 66% | 975 hPa | - | - | 0 W/m² | - |
| 1778142508 | 31.11° C | 64% | 974 hPa | - | - | 0 W/m² | - |
| 1778142186 | 30.56° C | 65% | 974 hPa | - | - | 0 W/m² | - |
| 1778141863 | 28.89° C | 68% | 974 hPa | - | - | 0 W/m² | - |
| 1778141541 | 28.89° C | 67% | 974 hPa | - | - | 0 W/m² | - |
| 1778141219 | 31.11° C | 64% | 974 hPa | - | - | 0 W/m² | - |
| 1778140896 | 33.33° C | 55% | 974 hPa | - | - | 0 W/m² | - |
| 1778140574 | 35° C | 53% | 974 hPa | - | - | 0 W/m² | - |
| 1778140250 | 36.67° C | 51% | 974 hPa | - | - | 0 W/m² | - |
* Rain since midnight (hover to see other rain measurements)
** Current wind speed in m/s (hover to see current wind gust speed)